Time;durP1;ratioP1;P1;durP2;ratioP2;P2;SDS_P1;SDS_P2;PMS_P1;PMS_P2;Temp;Humidity;BMP_temperature;BMP_pressure;BME280_temperature;BME280_humidity;BME280_pressure;Samples;Min_cycle;Max_cycle;Signal;HPM_P1;HPM_P2
2023/04/16 00:02:23;;;;;;;14.13;5.03;;;;;;;6.90;100.00;102040.47;5042894;28;20044;-64
2023/04/16 00:04:48;;;;;;;13.50;4.90;;;;;;;6.98;100.00;102043.41;5043233;28;20028;-64
2023/04/16 00:07:13;;;;;;;10.27;4.93;;;;;;;7.01;100.00;102043.19;5046027;28;20043;-65
2023/04/16 00:09:38;;;;;;;11.32;5.10;;;;;;;6.92;100.00;102041.19;5046667;28;20045;-64
2023/04/16 00:12:05;;;;;;;12.48;5.00;;;;;;;6.94;100.00;102048.06;5044567;28;20476;-64
2023/04/16 00:14:30;;;;;;;17.20;5.55;;;;;;;6.93;100.00;102045.50;5044605;28;20098;-64
2023/04/16 00:16:55;;;;;;;12.23;4.70;;;;;;;6.96;100.00;102045.31;5046417;28;20609;-63
2023/04/16 00:19:21;;;;;;;14.70;5.20;;;;;;;6.92;100.00;102043.84;5046300;28;20435;-64
2023/04/16 00:21:46;;;;;;;20.00;5.50;;;;;;;6.95;100.00;102043.59;5046668;28;20043;-64
2023/04/16 00:24:11;;;;;;;13.57;5.60;;;;;;;7.02;100.00;102044.03;5045340;28;20037;-64
2023/04/16 00:26:36;;;;;;;15.65;5.10;;;;;;;6.99;100.00;102038.03;5046885;28;20114;-64
2023/04/16 00:29:02;;;;;;;14.90;5.30;;;;;;;7.06;100.00;102046.34;5042843;28;20481;-65
2023/04/16 00:31:29;;;;;;;13.88;5.82;;;;;;;6.99;100.00;102045.09;5046922;28;20049;-63
2023/04/16 00:33:54;;;;;;;13.63;5.60;;;;;;;7.00;100.00;102036.22;5045192;28;20061;-64
2023/04/16 00:36:20;;;;;;;10.43;5.55;;;;;;;7.00;100.00;102047.63;5045725;28;20550;-64
2023/04/16 00:38:45;;;;;;;17.17;5.43;;;;;;;6.97;100.00;102047.00;5032945;28;20042;-64
2023/04/16 00:41:11;;;;;;;10.77;5.50;;;;;;;7.08;100.00;102040.94;5041440;28;20044;-65
2023/04/16 00:43:36;;;;;;;17.40;5.47;;;;;;;7.01;100.00;102043.19;5043695;28;20029;-64
2023/04/16 00:46:04;;;;;;;14.00;5.72;;;;;;;6.96;100.00;102040.03;5044177;28;20056;-63
2023/04/16 00:48:31;;;;;;;16.00;6.47;;;;;;;6.98;100.00;102038.97;5040899;28;20044;-64
2023/04/16 00:50:59;;;;;;;13.70;5.70;;;;;;;6.94;100.00;102041.91;5043937;28;20055;-64
2023/04/16 00:53:24;;;;;;;15.82;5.88;;;;;;;6.95;100.00;102038.31;5043461;28;20036;-65
2023/04/16 00:55:49;;;;;;;15.20;6.35;;;;;;;6.93;100.00;102040.25;5046145;28;20032;-65
2023/04/16 00:58:15;;;;;;;15.60;6.20;;;;;;;6.97;100.00;102041.72;5042764;28;20598;-65
2023/04/16 01:00:41;;;;;;;17.15;6.18;;;;;;;6.97;100.00;102041.72;5045579;28;20511;-64
2023/04/16 01:03:06;;;;;;;15.07;6.15;;;;;;;7.02;100.00;102036.13;5045525;28;20120;-65
2023/04/16 01:05:31;;;;;;;12.20;6.38;;;;;;;6.95;100.00;102043.59;5046186;28;20512;-64
2023/04/16 01:07:59;;;;;;;15.38;6.82;;;;;;;7.03;100.00;102040.44;5044060;28;20057;-65
2023/04/16 01:10:24;;;;;;;17.90;6.70;;;;;;;6.99;100.00;102039.81;5045906;28;20044;-65
2023/04/16 01:12:50;;;;;;;15.98;7.25;;;;;;;6.95;100.00;102043.59;5041788;28;20583;-65
2023/04/16 01:15:15;;;;;;;21.58;6.88;;;;;;;6.98;100.00;102043.41;5045028;28;20017;-65
2023/04/16 01:17:40;;;;;;;15.85;6.97;;;;;;;7.06;100.00;102041.06;5033736;28;20032;-65
2023/04/16 01:20:06;;;;;;;16.23;7.47;;;;;;;6.99;100.00;102039.81;5045243;28;20480;-65
2023/04/16 01:22:31;;;;;;;18.00;7.30;;;;;;;7.05;100.00;102033.28;5044959;28;20064;-65
2023/04/16 01:24:56;;;;;;;18.15;7.40;;;;;;;7.06;100.00;102033.16;5043470;28;20128;-64
2023/04/16 01:27:21;;;;;;;18.38;8.25;;;;;;;7.06;100.00;102035.78;5044942;28;20029;-65
2023/04/16 01:29:47;;;;;;;18.05;7.50;;;;;;;7.09;100.00;102038.22;5043155;28;20127;-64
2023/04/16 01:32:12;;;;;;;18.45;7.93;;;;;;;7.08;100.00;102031.25;5044717;28;20033;-65
2023/04/16 01:34:37;;;;;;;18.92;8.32;;;;;;;7.17;100.00;102031.53;5030341;28;20348;-65
2023/04/16 01:37:03;;;;;;;18.85;7.85;;;;;;;7.16;100.00;102037.78;5044048;28;20033;-65
2023/04/16 01:39:28;;;;;;;18.25;7.95;;;;;;;7.10;100.00;102042.53;5043702;28;20029;-65
2023/04/16 01:41:53;;;;;;;15.02;7.80;;;;;;;7.14;100.00;102048.44;5044613;28;20029;-65
2023/04/16 01:44:20;;;;;;;13.57;8.32;;;;;;;7.14;100.00;102048.44;5044378;28;20039;-64
2023/04/16 01:46:45;;;;;;;15.93;8.68;;;;;;;7.12;100.00;102040.63;5044251;28;20045;-65
2023/04/16 01:49:11;;;;;;;19.35;8.57;;;;;;;7.17;100.00;102036.81;5040921;28;20119;-65
2023/04/16 01:51:36;;;;;;;18.00;9.10;;;;;;;7.13;100.00;102047.59;5044627;28;20061;-65
2023/04/16 01:54:02;;;;;;;14.15;8.50;;;;;;;7.21;100.00;102044.41;5040475;28;20044;-65
2023/04/16 01:56:27;;;;;;;16.15;9.13;;;;;;;7.25;100.00;102042.38;5044232;28;20025;-65
2023/04/16 01:58:52;;;;;;;16.45;8.82;;;;;;;7.11;100.00;102051.31;5043824;28;20523;-65
2023/04/16 02:01:18;;;;;;;19.55;9.63;;;;;;;7.13;100.00;102042.34;5041909;28;20037;-65
2023/04/16 02:03:43;;;;;;;16.80;9.10;;;;;;;7.15;100.00;102044.00;5042793;28;20110;-65
2023/04/16 02:06:08;;;;;;;18.23;9.40;;;;;;;7.12;100.00;102040.63;5043673;28;20045;-64
2023/04/16 02:08:34;;;;;;;18.92;9.43;;;;;;;7.10;100.00;102037.25;5041353;28;20111;-65
2023/04/16 02:10:59;;;;;;;19.10;10.13;;;;;;;7.14;100.00;102037.88;5035671;28;20033;-65
2023/04/16 02:13:25;;;;;;;16.52;9.68;;;;;;;7.12;100.00;102045.06;5034939;28;20032;-65
2023/04/16 02:15:51;;;;;;;17.65;9.65;;;;;;;7.19;100.00;102040.19;5040961;28;20036;-65
2023/04/16 02:18:17;;;;;;;23.35;10.48;;;;;;;7.15;100.00;102030.81;5041846;28;20065;-64
2023/04/16 02:20:44;;;;;;;19.77;10.85;;;;;;;7.07;100.00;102045.41;5042169;28;20029;-65
2023/04/16 02:23:10;;;;;;;18.02;9.73;;;;;;;7.16;100.00;102035.13;5039756;28;20132;-65
2023/04/16 02:25:45;;;;;;;19.23;9.52;;;;;;;7.24;100.00;102040.69;5045449;28;20087;-65
2023/04/16 02:28:13;;;;;;;17.85;9.35;;;;;;;7.21;100.00;102027.75;5033041;28;20032;-64
2023/04/16 02:30:39;;;;;;;18.67;9.65;;;;;;;7.25;100.00;102037.09;5043347;28;20457;-64
2023/04/16 02:33:06;;;;;;;16.88;9.85;;;;;;;7.25;100.00;102034.47;5044013;28;20036;-65
2023/04/16 02:35:36;;;;;;;16.00;9.15;;;;;;;7.23;100.00;102033.75;5045182;28;20033;-65
2023/04/16 02:38:03;;;;;;;18.70;9.70;;;;;;;7.21;100.00;102031.22;5043807;28;20066;-65
2023/04/16 02:40:28;;;;;;;17.35;9.20;;;;;;;7.27;100.00;102040.50;5044529;28;20037;-64
2023/04/16 02:42:54;;;;;;;18.45;9.93;;;;;;;7.21;100.00;102033.03;5044546;28;20035;-65
2023/04/16 02:45:20;;;;;;;17.27;8.85;;;;;;;7.22;100.00;102039.97;5043836;28;21012;-64
2023/04/16 02:47:46;;;;;;;18.45;9.60;;;;;;;7.16;100.00;102038.63;5043439;28;20072;-65
2023/04/16 02:50:12;;;;;;;18.00;9.18;;;;;;;7.17;100.00;102047.38;5043779;28;20029;-65
2023/04/16 02:52:37;;;;;;;20.17;9.60;;;;;;;7.20;100.00;102047.16;5043981;28;20055;-65
2023/04/16 02:55:03;;;;;;;14.73;8.20;;;;;;;7.22;100.00;102055.81;5044562;28;20068;-65
2023/04/16 02:57:28;;;;;;;18.10;9.18;;;;;;;7.24;100.00;102049.47;5044473;28;20060;-65
2023/04/16 02:59:53;;;;;;;15.75;8.65;;;;;;;7.28;100.00;102055.38;5043823;28;20108;-65
2023/04/16 03:02:18;;;;;;;15.43;8.40;;;;;;;7.22;100.00;102061.94;5042801;28;20469;-64
2023/04/16 03:04:44;;;;;;;17.42;8.80;;;;;;;7.27;100.00;102051.06;5044372;28;20032;-65
2023/04/16 03:07:11;;;;;;;17.80;8.63;;;;;;;7.30;100.00;102048.19;5039740;28;20114;-64
2023/04/16 03:09:36;;;;;;;16.67;9.10;;;;;;;7.36;100.00;102053.00;5043675;28;20268;-65
2023/04/16 03:12:02;;;;;;;18.60;9.18;;;;;;;7.15;100.00;102057.19;5042099;28;20037;-65
2023/04/16 03:14:27;;;;;;;17.08;8.85;;;;;;;7.20;100.00;102057.72;5039354;28;20064;-65
2023/04/16 03:16:52;;;;;;;16.73;8.70;;;;;;;7.25;100.00;102059.06;5042321;28;20035;-65
2023/04/16 03:19:18;;;;;;;16.63;8.73;;;;;;;7.25;100.00;102066.13;5044129;28;20041;-64
2023/04/16 03:21:43;;;;;;;18.85;9.85;;;;;;;7.28;100.00;102055.38;5043977;28;20029;-64
2023/04/16 03:24:08;;;;;;;19.38;10.38;;;;;;;7.24;100.00;102064.44;5043437;28;20476;-64
2023/04/16 03:26:33;;;;;;;21.10;10.52;;;;;;;7.21;100.00;102062.03;5040548;28;20377;-64
2023/04/16 03:29:00;;;;;;;20.30;10.55;;;;;;;7.25;100.00;102066.13;5040842;28;20107;-64
2023/04/16 03:31:26;;;;;;;20.77;10.73;;;;;;;7.34;100.00;102068.13;5044979;28;20032;-65
2023/04/16 03:33:51;;;;;;;20.05;10.85;;;;;;;7.31;100.00;102068.34;5044269;28;20040;-65
2023/04/16 03:36:16;;;;;;;19.38;11.30;;;;;;;7.32;100.00;102072.69;5042063;28;20078;-65
2023/04/16 03:38:42;;;;;;;20.90;11.38;;;;;;;7.26;100.00;102073.13;5039311;28;20033;-64
2023/04/16 03:41:07;;;;;;;23.23;11.50;;;;;;;7.34;100.00;102076.03;5046451;28;20036;-65
2023/04/16 03:43:32;;;;;;;20.75;12.38;;;;;;;7.26;100.00;102073.13;5046162;28;20453;-65
2023/04/16 03:45:57;;;;;;;22.20;12.15;;;;;;;7.34;100.00;102076.03;5045373;28;20154;-65
2023/04/16 03:48:23;;;;;;;22.83;12.73;;;;;;;7.36;100.00;102065.38;5045292;28;20044;-65
2023/04/16 03:50:48;;;;;;;24.27;12.90;;;;;;;7.30;100.00;102069.28;5048393;28;20058;-65
2023/04/16 03:53:14;;;;;;;21.95;12.77;;;;;;;7.38;100.00;102064.31;5046098;28;20486;-65
2023/04/16 03:55:40;;;;;;;24.25;10.15;;;;;;;7.46;100.00;102068.19;5047792;28;20037;-65
2023/04/16 03:58:05;;;;;;;23.70;14.57;;;;;;;7.34;100.00;102064.63;5046876;28;20033;-65
2023/04/16 04:00:31;;;;;;;23.95;15.10;;;;;;;7.37;100.00;102067.06;5046057;28;20834;-64
2023/04/16 04:02:57;;;;;;;25.73;15.75;;;;;;;7.30;100.00;102077.19;5034940;28;20028;-65
2023/04/16 04:05:22;;;;;;;25.40;15.23;;;;;;;7.27;100.00;102069.53;5047200;28;20072;-65
2023/04/16 04:07:47;;;;;;;24.70;16.13;;;;;;;7.25;100.00;102072.25;5044517;28;20051;-64
2023/04/16 04:10:15;;;;;;;23.88;14.73;;;;;;;7.29;100.00;102072.88;5045851;28;20116;-65
2023/04/16 04:12:41;;;;;;;26.48;14.32;;;;;;;7.31;100.00;102076.28;5044212;28;20572;-65
2023/04/16 04:15:07;;;;;;;28.20;15.98;;;;;;;7.29;100.00;102070.25;5046155;28;20076;-65
2023/04/16 04:17:32;;;;;;;26.13;15.23;;;;;;;7.28;100.00;102071.19;5034342;28;20064;-64
2023/04/16 04:19:58;;;;;;;26.92;16.25;;;;;;;7.20;100.00;102068.28;5041969;28;20116;-64
2023/04/16 04:22:23;;;;;;;26.42;13.70;;;;;;;7.30;100.00;102077.19;5035078;28;20025;-65
2023/04/16 04:24:48;;;;;;;26.73;13.85;;;;;;;7.22;100.00;102072.50;5047447;28;20079;-65
2023/04/16 04:27:14;;;;;;;22.85;12.80;;;;;;;7.34;100.00;102065.47;5037210;28;20029;-65
2023/04/16 04:29:39;;;;;;;24.00;13.15;;;;;;;7.33;100.00;102063.81;5042820;28;20067;-65
2023/04/16 04:32:05;;;;;;;25.50;13.82;;;;;;;7.26;100.00;102083.66;5044292;28;20033;-65
2023/04/16 04:34:30;;;;;;;24.67;14.57;;;;;;;7.25;100.00;102076.69;5044136;28;20055;-64
2023/04/16 04:36:55;;;;;;;23.83;13.20;;;;;;;7.31;100.00;102080.69;5045286;28;20047;-65
2023/04/16 04:39:21;;;;;;;23.20;13.77;;;;;;;7.15;100.00;102087.03;5046556;28;20515;-65
2023/04/16 04:41:47;;;;;;;27.80;14.80;;;;;;;7.22;100.00;102082.19;5046217;28;20033;-64
2023/04/16 04:44:12;;;;;;;23.13;12.07;;;;;;;7.38;100.00;102084.56;5045532;28;20029;-65
2023/04/16 04:46:38;;;;;;;27.55;14.80;;;;;;;7.32;100.00;102088.50;5044074;28;20076;-65
2023/04/16 04:49:04;;;;;;;24.05;13.40;;;;;;;7.12;100.00;102097.81;5045550;28;20032;-65
2023/04/16 04:51:30;;;;;;;23.33;14.18;;;;;;;7.16;100.00;102088.75;5046452;28;20032;-65
2023/04/16 04:53:55;;;;;;;26.65;14.98;;;;;;;7.21;100.00;102097.16;5045000;28;20102;-65
2023/04/16 04:56:20;;;;;;;26.63;15.43;;;;;;;7.25;100.00;102093.38;5044954;28;20116;-65
2023/04/16 04:58:46;;;;;;;23.50;13.77;;;;;;;7.31;100.00;102094.75;5045860;28;20045;-64
2023/04/16 05:01:11;;;;;;;24.05;14.00;;;;;;;7.25;100.00;102095.16;5042982;28;20147;-65
2023/04/16 05:03:36;;;;;;;26.33;15.55;;;;;;;7.23;100.00;102099.69;5044482;28;20481;-65
2023/04/16 05:06:01;;;;;;;27.67;14.98;;;;;;;7.29;100.00;102087.88;5046165;28;20033;-65
2023/04/16 05:08:27;;;;;;;25.23;15.15;;;;;;;7.21;100.00;102088.44;5045041;28;20045;-65
2023/04/16 05:10:52;;;;;;;24.88;14.70;;;;;;;7.18;100.00;102096.53;5036394;28;20030;-65
2023/04/16 05:13:17;;;;;;;29.00;15.90;;;;;;;7.03;100.00;102094.03;5044067;28;20033;-65
2023/04/16 05:15:44;;;;;;;27.90;15.63;;;;;;;7.15;100.00;102091.50;5044842;28;20041;-65
2023/04/16 05:18:09;;;;;;;26.50;14.63;;;;;;;7.21;100.00;102096.34;5044124;28;20037;-65
2023/04/16 05:20:36;;;;;;;30.15;14.93;;;;;;;7.20;100.00;102095.47;5045277;28;20048;-65
2023/04/16 05:23:02;;;;;;;31.08;15.73;;;;;;;7.09;100.00;102098.88;5045353;28;20396;-65
2023/04/16 05:25:27;;;;;;;25.63;15.25;;;;;;;7.13;100.00;102105.63;5045364;28;20038;-64
2023/04/16 05:27:52;;;;;;;24.10;14.20;;;;;;;7.21;100.00;102101.63;5045855;28;20835;-65
2023/04/16 05:30:18;;;;;;;27.90;15.40;;;;;;;7.23;100.00;102107.63;5045050;28;20037;-64
2023/04/16 05:32:43;;;;;;;27.75;14.35;;;;;;;7.25;100.00;102108.34;5045362;28;20032;-65
2023/04/16 05:35:08;;;;;;;26.73;15.13;;;;;;;7.27;100.00;102109.91;5044628;28;20446;-65
2023/04/16 05:37:34;;;;;;;27.85;14.68;;;;;;;7.20;100.00;102110.50;5045136;28;20128;-65
2023/04/16 05:39:59;;;;;;;26.17;14.68;;;;;;;7.21;100.00;102114.81;5046037;28;20057;-65
2023/04/16 05:42:24;;;;;;;27.70;15.18;;;;;;;7.12;100.00;102119.75;5045050;28;20389;-64
2023/04/16 05:44:50;;;;;;;28.42;14.48;;;;;;;7.13;100.00;102117.97;5043679;28;20037;-65
2023/04/16 05:47:16;;;;;;;28.88;14.27;;;;;;;7.15;100.00;102123.16;5044231;28;20049;-64
2023/04/16 05:49:41;;;;;;;26.85;15.68;;;;;;;7.07;100.00;102129.81;5042866;28;20033;-64
2023/04/16 05:52:06;;;;;;;27.92;13.68;;;;;;;7.21;100.00;102128.00;5042794;28;20476;-64
2023/04/16 05:54:32;;;;;;;27.45;14.32;;;;;;;7.31;100.00;102128.19;5040604;28;20623;-64
2023/04/16 05:56:57;;;;;;;28.85;14.43;;;;;;;7.25;100.00;102132.09;5045381;28;20033;-64
2023/04/16 05:59:22;;;;;;;28.67;15.15;;;;;;;7.07;100.00;102132.44;5044426;28;20029;-64
2023/04/16 06:01:47;;;;;;;24.13;14.75;;;;;;;7.16;100.00;102135.38;5045497;28;20043;-64
2023/04/16 06:04:13;;;;;;;25.50;14.20;;;;;;;7.37;100.00;102138.31;5043300;28;20037;-64
2023/04/16 06:06:39;;;;;;;29.42;15.05;;;;;;;7.19;100.00;102135.16;5042664;28;20041;-65
2023/04/16 06:09:04;;;;;;;30.20;15.57;;;;;;;7.26;100.00;102141.72;5043043;28;20029;-65
2023/04/16 06:11:29;;;;;;;28.15;15.82;;;;;;;7.11;100.00;102149.72;5039316;28;20033;-64
2023/04/16 06:13:55;;;;;;;28.15;15.88;;;;;;;7.19;100.00;102137.78;5046756;28;20044;-65
2023/04/16 06:16:20;;;;;;;26.58;14.57;;;;;;;7.29;100.00;102141.50;5042292;28;20041;-65
2023/04/16 06:18:46;;;;;;;26.38;16.05;;;;;;;7.07;100.00;102137.72;5039280;28;20072;-64
2023/04/16 06:21:11;;;;;;;31.95;15.95;;;;;;;7.16;100.00;102140.66;5042367;28;20114;-65
2023/04/16 06:23:36;;;;;;;27.17;14.10;;;;;;;7.35;100.00;102135.78;5032860;28;20111;-65
2023/04/16 06:26:02;;;;;;;24.73;13.95;;;;;;;7.40;100.00;102140.72;5039755;28;20354;-64
2023/04/16 06:28:27;;;;;;;28.38;15.18;;;;;;;7.36;100.00;102141.91;5041712;28;20033;-65
2023/04/16 06:30:52;;;;;;;29.95;15.90;;;;;;;7.36;100.00;102147.19;5043847;28;20053;-65
2023/04/16 06:33:18;;;;;;;27.95;15.38;;;;;;;7.36;100.00;102153.28;5042741;28;20037;-65
2023/04/16 06:35:43;;;;;;;27.10;15.80;;;;;;;7.16;100.00;102145.94;5045116;28;20032;-65
2023/04/16 06:38:08;;;;;;;25.20;14.85;;;;;;;7.25;100.00;102158.47;5041743;28;20036;-65
2023/04/16 06:40:36;;;;;;;28.35;15.57;;;;;;;7.27;100.00;102159.22;5041462;28;20036;-65
2023/04/16 06:43:01;;;;;;;27.48;14.75;;;;;;;7.26;100.00;102157.56;5043837;28;20468;-65
2023/04/16 06:45:27;;;;;;;29.05;15.75;;;;;;;7.31;100.00;102160.72;5043743;28;20059;-65
2023/04/16 06:47:52;;;;;;;29.02;15.13;;;;;;;7.37;100.00;102160.28;5042314;28;20064;-65
2023/04/16 06:50:17;;;;;;;32.70;16.40;;;;;;;7.14;100.00;102159.22;5043043;28;20067;-65
2023/04/16 06:52:43;;;;;;;28.98;15.05;;;;;;;7.34;100.00;102164.91;5040500;28;20111;-66
2023/04/16 06:55:09;;;;;;;30.20;15.82;;;;;;;7.37;100.00;102168.19;5044071;28;20043;-65
2023/04/16 06:57:35;;;;;;;27.15;15.20;;;;;;;7.48;100.00;102171.84;5043919;28;20044;-66
2023/04/16 07:00:00;;;;;;;29.88;15.68;;;;;;;7.25;100.00;102171.66;5044160;28;20044;-65
2023/04/16 07:02:26;;;;;;;28.27;13.93;;;;;;;7.37;100.00;102173.47;5043221;28;20041;-65
2023/04/16 07:04:51;;;;;;;31.20;14.80;;;;;;;7.52;100.00;102176.84;5039123;28;20049;-65
2023/04/16 07:07:17;;;;;;;28.98;15.80;;;;;;;7.42;100.00;102180.22;5037913;28;20041;-65
2023/04/16 07:09:42;;;;;;;28.90;14.32;;;;;;;7.52;100.00;102183.91;5040029;28;20751;-65
2023/04/16 07:12:08;;;;;;;30.73;15.40;;;;;;;7.49;100.00;102184.09;5037171;28;20531;-65
2023/04/16 07:14:33;;;;;;;32.90;15.95;;;;;;;7.33;100.00;102184.34;5038580;28;20100;-65
2023/04/16 07:16:58;;;;;;;30.17;15.30;;;;;;;7.54;100.00;102192.53;5041233;28;20104;-65
2023/04/16 07:19:24;;;;;;;32.95;16.98;;;;;;;7.33;100.00;102193.09;5040331;28;20060;-65
2023/04/16 07:21:50;;;;;;;35.25;18.60;;;;;;;7.20;100.00;102200.19;5038847;28;20945;-66
2023/04/16 07:24:16;;;;;;;37.22;17.05;;;;;;;7.30;100.00;102201.22;5036346;28;20075;-65
2023/04/16 07:26:41;;;;;;;37.85;17.38;;;;;;;7.40;100.00;102202.28;5041290;28;20069;-66
2023/04/16 07:29:06;;;;;;;33.58;17.38;;;;;;;7.47;100.00;102196.56;5037680;28;20396;-64
2023/04/16 07:31:32;;;;;;;30.63;15.70;;;;;;;7.62;100.00;102199.94;5039475;28;20041;-65
2023/04/16 07:33:58;;;;;;;34.58;18.77;;;;;;;7.32;100.00;102199.34;5038160;28;20485;-65
2023/04/16 07:36:23;;;;;;;34.15;17.08;;;;;;;7.57;100.00;102208.19;5037353;28;20029;-65
2023/04/16 07:38:48;;;;;;;35.47;18.10;;;;;;;7.37;100.00;102207.78;5040012;28;20036;-65
2023/04/16 07:41:13;;;;;;;38.67;18.63;;;;;;;7.34;100.00;102207.97;5036123;28;20518;-65
2023/04/16 07:43:39;;;;;;;39.00;19.40;;;;;;;7.30;100.00;102214.41;5039740;28;20147;-65
2023/04/16 07:46:04;;;;;;;34.75;17.60;;;;;;;7.61;100.00;102212.28;5039719;28;20110;-65
2023/04/16 07:48:29;;;;;;;36.35;17.45;;;;;;;7.58;100.00;102212.50;5039691;28;20036;-65
2023/04/16 07:50:55;;;;;;;35.17;19.42;;;;;;;7.53;100.00;102217.25;5038354;28;20392;-65
2023/04/16 07:53:20;;;;;;;36.30;19.40;;;;;;;7.51;100.00;102220.00;5038904;28;20033;-65
2023/04/16 07:55:46;;;;;;;33.40;17.95;;;;;;;7.55;100.00;102225.91;5038819;28;20044;-65
2023/04/16 07:58:11;;;;;;;37.75;17.52;;;;;;;7.65;100.00;102226.13;5038407;28;20044;-65
2023/04/16 08:00:36;;;;;;;45.42;19.30;;;;;;;7.70;100.00;102225.81;5041328;28;20056;-65
2023/04/16 08:03:02;;;;;;;34.50;17.65;;;;;;;7.77;100.00;102225.25;5039415;28;20076;-65
2023/04/16 08:05:27;;;;;;;34.67;16.85;;;;;;;7.73;100.00;102230.84;5039749;28;20047;-65
2023/04/16 08:07:53;;;;;;;36.50;18.70;;;;;;;7.68;100.00;102231.19;5041523;28;20063;-65
2023/04/16 08:10:18;;;;;;;39.25;18.98;;;;;;;7.73;100.00;102230.84;5040381;28;20492;-65
2023/04/16 08:12:43;;;;;;;38.70;19.70;;;;;;;7.62;100.00;102240.38;5039123;28;20120;-65
2023/04/16 08:15:09;;;;;;;40.65;18.75;;;;;;;7.60;100.00;102241.44;5040205;28;20036;-65
2023/04/16 08:17:36;;;;;;;40.03;18.77;;;;;;;7.69;100.00;102251.34;5041274;28;20033;-65
2023/04/16 08:20:01;;;;;;;41.42;20.10;;;;;;;7.73;100.00;102251.97;5040654;28;20039;-65
2023/04/16 08:22:26;;;;;;;41.03;20.00;;;;;;;7.72;100.00;102252.94;5039290;28;20048;-65
2023/04/16 08:24:52;;;;;;;42.67;20.50;;;;;;;7.67;100.00;102251.47;5041404;28;20090;-65
2023/04/16 08:27:17;;;;;;;42.25;19.83;;;;;;;7.66;100.00;102251.56;5035785;28;20457;-65
2023/04/16 08:29:43;;;;;;;43.10;20.00;;;;;;;7.55;100.00;102257.59;5035301;28;20032;-65
2023/04/16 08:32:09;;;;;;;38.28;20.08;;;;;;;7.61;100.00;102256.34;5037876;28;20041;-65
2023/04/16 08:34:35;;;;;;;46.05;20.95;;;;;;;7.56;100.00;102261.94;5040428;28;20511;-65
2023/04/16 08:37:00;;;;;;;43.63;20.80;;;;;;;7.56;100.00;102258.44;5039402;28;20056;-65
2023/04/16 08:39:25;;;;;;;42.40;20.90;;;;;;;7.58;100.00;102260.03;5038219;28;20113;-65
2023/04/16 08:41:52;;;;;;;42.03;20.33;;;;;;;7.79;100.00;102267.38;5039422;28;20119;-65
2023/04/16 08:44:32;;;;;;;41.58;20.27;;;;;;;7.70;100.00;102257.47;5038861;28;20127;-65
2023/04/16 08:46:59;;;;;;;43.03;20.58;;;;;;;7.66;100.00;102265.59;5040036;28;20048;-64
2023/04/16 08:49:25;;;;;;;41.10;20.63;;;;;;;7.70;100.00;102265.41;5038640;28;20091;-66
2023/04/16 08:51:53;;;;;;;45.55;21.13;;;;;;;7.63;100.00;102255.28;5036809;28;20037;-65
2023/04/16 08:54:33;;;;;;;44.80;20.92;;;;;;;7.84;100.00;102267.09;5035490;28;20030;-65
2023/04/16 08:56:59;;;;;;;42.03;19.42;;;;;;;7.87;100.00;102273.00;5040019;28;20502;-65
2023/04/16 08:59:27;;;;;;;39.55;19.42;;;;;;;8.00;100.00;102272.13;5039401;28;20164;-65
2023/04/16 09:01:56;;;;;;;41.90;20.10;;;;;;;7.78;100.00;102276.25;5037940;28;20032;-66
2023/04/16 09:04:25;;;;;;;42.10;19.17;;;;;;;7.80;100.00;102271.75;5035208;28;20053;-66
2023/04/16 09:06:52;;;;;;;39.05;20.02;;;;;;;7.90;100.00;102278.03;5041317;28;20029;-66
2023/04/16 09:09:19;;;;;;;39.30;19.75;;;;;;;7.96;100.00;102283.84;5038353;28;20029;-65
2023/04/16 09:11:45;;;;;;;38.05;17.90;;;;;;;8.02;100.00;102286.06;5037074;28;20125;-66
2023/04/16 09:14:11;;;;;;;37.35;17.63;;;;;;;8.14;100.00;102290.47;5037084;28;20025;-65
2023/04/16 09:16:38;;;;;;;40.85;18.95;;;;;;;8.10;100.00;102289.03;5037294;28;20041;-65
2023/04/16 09:19:03;;;;;;;39.50;19.58;;;;;;;7.87;100.00;102294.13;5035802;28;20041;-65
2023/04/16 09:21:29;;;;;;;42.70;20.63;;;;;;;7.84;100.00;102294.31;5036020;28;20203;-65
2023/04/16 09:23:55;;;;;;;36.90;19.10;;;;;;;7.99;100.00;102291.56;5042573;28;20567;-64
2023/04/16 09:26:25;;;;;;;41.75;19.75;;;;;;;8.06;100.00;102292.81;5039046;28;20025;-65
2023/04/16 09:28:50;;;;;;;42.30;19.45;;;;;;;8.04;100.00;102292.91;5038593;28;20037;-66
2023/04/16 09:31:17;;;;;;;40.83;19.60;;;;;;;7.98;100.00;102296.00;5034310;28;20090;-66
2023/04/16 09:33:59;;;;;;;38.95;19.27;;;;;;;8.07;100.00;102307.72;5036485;28;20026;-65
2023/04/16 09:36:26;;;;;;;40.63;18.10;;;;;;;8.24;100.00;102306.50;5036560;28;20088;-66
2023/04/16 09:38:52;;;;;;;36.63;18.27;;;;;;;8.26;100.00;102303.75;5035713;28;20037;-65
2023/04/16 09:41:18;;;;;;;38.58;19.65;;;;;;;8.10;100.00;102317.22;5033084;28;20037;-65
2023/04/16 09:44:03;;;;;;;40.45;19.55;;;;;;;8.01;100.00;102316.06;5038800;28;20034;-66
2023/04/16 09:46:30;;;;;;;36.75;19.40;;;;;;;8.05;100.00;102312.28;5035077;28;20597;-65
2023/04/16 09:48:56;;;;;;;32.92;18.27;;;;;;;8.15;100.00;102313.28;5040192;28;20071;-66
2023/04/16 09:51:21;;;;;;;40.75;19.08;;;;;;;8.16;100.00;102320.28;5035437;28;20064;-65
2023/04/16 09:53:50;;;;;;;37.03;19.92;;;;;;;8.00;100.00;102324.97;5035155;28;20091;-66
2023/04/16 09:56:16;;;;;;;38.95;20.30;;;;;;;8.02;100.00;102321.25;5037948;28;20033;-65
2023/04/16 09:58:41;;;;;;;34.33;19.60;;;;;;;8.17;100.00;102324.63;5044003;28;20047;-67
2023/04/16 10:01:09;;;;;;;39.22;20.60;;;;;;;8.13;100.00;102320.50;5041600;28;20167;-65
2023/04/16 10:03:37;;;;;;;37.40;18.95;;;;;;;8.11;100.00;102319.75;5039813;28;20021;-65
2023/04/16 10:06:05;;;;;;;36.33;19.17;;;;;;;8.19;100.00;102320.06;5041021;28;20515;-65
2023/04/16 10:08:30;;;;;;;38.65;19.90;;;;;;;8.29;100.00;102329.97;5040015;28;20052;-65
2023/04/16 10:10:56;;;;;;;41.92;19.92;;;;;;;8.31;100.00;102328.06;5032605;28;21024;-64
2023/04/16 10:13:22;;;;;;;40.58;19.88;;;;;;;8.27;100.00;102326.59;5042620;28;20052;-64
2023/04/16 10:15:47;;;;;;;39.80;20.00;;;;;;;8.12;100.00;102329.38;5034399;28;20037;-64
2023/04/16 10:18:14;;;;;;;40.70;20.58;;;;;;;8.18;100.00;102331.59;5043937;28;20033;-64
2023/04/16 10:20:40;;;;;;;37.42;19.17;;;;;;;8.31;100.00;102328.06;5041293;28;20036;-65
2023/04/16 10:23:05;;;;;;;42.65;20.67;;;;;;;8.31;100.00;102328.06;5043917;28;20033;-64
2023/04/16 10:25:31;;;;;;;36.85;19.92;;;;;;;8.40;100.00;102329.19;5043515;28;20033;-64
2023/04/16 10:27:58;;;;;;;38.80;19.33;;;;;;;8.36;100.00;102328.59;5042795;28;20044;-64
2023/04/16 10:30:24;;;;;;;36.67;18.73;;;;;;;8.29;100.00;102330.81;5044278;28;20024;-64
2023/04/16 10:32:51;;;;;;;34.80;19.05;;;;;;;8.40;100.00;102338.00;5043334;28;20028;-65
2023/04/16 10:35:20;;;;;;;42.85;20.40;;;;;;;8.30;100.00;102337.78;5043044;28;20060;-65
2023/04/16 10:37:46;;;;;;;35.55;19.35;;;;;;;8.38;100.00;102333.75;5043785;28;20029;-65
2023/04/16 10:40:22;;;;;;;35.92;19.38;;;;;;;8.47;100.00;102344.53;5043320;28;20047;-65
2023/04/16 10:42:58;;;;;;;36.80;18.02;;;;;;;8.45;100.00;102346.41;5036735;28;20810;-64
2023/04/16 10:45:36;;;;;;;39.67;19.42;;;;;;;8.31;100.00;102333.34;5042279;28;20077;-64
2023/04/16 10:48:08;;;;;;;39.97;20.05;;;;;;;8.35;100.00;102340.94;5041905;28;20087;-64
2023/04/16 10:50:35;;;;;;;38.03;19.98;;;;;;;8.35;100.00;102337.47;5042541;28;20029;-64
2023/04/16 10:53:25;;;;;;;43.08;20.88;;;;;;;8.41;100.00;102339.69;5040289;28;20032;-65
2023/04/16 10:55:56;;;;;;;39.58;21.08;;;;;;;8.33;100.00;102342.88;5034781;28;20519;-64
2023/04/16 10:58:29;;;;;;;40.15;20.98;;;;;;;8.31;100.00;102341.28;5039964;28;20029;-64
2023/04/16 11:00:54;;;;;;;37.10;20.38;;;;;;;8.29;100.00;102335.25;5036948;28;20064;-65
2023/04/16 11:03:20;;;;;;;36.53;19.95;;;;;;;8.36;100.00;102336.50;5040728;28;20555;-64
2023/04/16 11:05:45;;;;;;;39.40;21.60;;;;;;;8.31;100.00;102336.00;5044294;28;20108;-65
2023/04/16 11:08:15;;;;;;;36.88;19.70;;;;;;;8.41;100.00;102331.75;5042507;28;20106;-64